Pittsville, WI

8:31 AM CST on December 07, 2016 (GMT -0600)
Village of Vesper | | Change Station

Elev 1109 ft 44.48 °N, 89.96 °W | Updated 0 second ago

Light Snow
Light Snow
16.5 °F
Feels Like 2 °F
N
15.0
Wind Variable Wind from West
Gusts 15.0 mph

Today
High -- | Low -- °F
--% Chance of Precip.
Yesterday
High -- | Low -- °F
Precip. -- in
Pressure 29.97 in
Visibility 7.0 miles
Clouds Overcast 1600 ft
Windchill 2 °F
Dew Point 13 °F
Humidity 86%
Rainfall 0.00 in
Snow Depth Not available.
7:23 AM 4:20 PM
First Quarter, 53% visible
METAR KMFI 071354Z AUTO 25013KT 7SM -SN OVC016 M09/M12 A2990 RMK AO2 SLP147 P0000 T10891122
Pressure 29.97 in
Visibility 7.0 miles
Clouds Overcast 1600 ft
Windchill 2 °F
Dew Point 13 °F
Humidity 86%
Rainfall 0.00 in
Snow Depth Not available.
7:23 AM 4:20 PM
First Quarter, 53% visible
METAR KMFI 071354Z AUTO 25013KT 7SM -SN OVC016 M09/M12 A2990 RMK AO2 SLP147 P0000 T10891122

10-Day Weather Forecast

Almanac

Astronomy

Dec. 07, 2016 Rise Set
Actual Time
Civil Twilight
Nautical Twilight
Astronomical Twilight
Moon
Length of Visible Light
Length of Day
Tomorrow will be .
, % of the Moon is Illuminated

Today's Extremes

State Highs State Lows

Community

WunderPhotos

Upload Photos

1,956,116 photos uploaded!

WunderBlog® & News

Nearby

Air Quality

  Air Quality AQ Index Pollutant
Not available.

Snow Depth

Station Depth Elevation

Earthquake Activity

City Distance Mag. Time & Date
Minimum magnitude displayed is 2.5.

Coastal Water Temperatures

Place Temperature

Stations

Nearby Weather Stations

Station Location Temp. Windchill Dew Point Humidity Wind Precip. Elev Updated Type
                   

Watches & Warnings

There are currently no watches in effect.